createdAt,value
2022-09-13T00:01:24.638Z,1.10
2022-09-13T00:03:51.125Z,0.80
2022-09-13T00:06:19.942Z,0.80
2022-09-13T00:08:47.355Z,1.60
2022-09-13T00:11:17.604Z,0.73
2022-09-13T00:13:44.725Z,0.68
2022-09-13T00:16:13.285Z,0.77
2022-09-13T00:18:40.191Z,0.70
2022-09-13T00:21:15.447Z,0.93
2022-09-13T00:23:47.024Z,0.60
2022-09-13T00:26:19.823Z,0.50
2022-09-13T00:28:51.519Z,1.05
2022-09-13T00:31:18.618Z,0.60
2022-09-13T00:33:45.027Z,0.90
2022-09-13T00:36:12.528Z,0.80
2022-09-13T00:38:40.112Z,0.80
2022-09-13T00:41:09.154Z,0.60
2022-09-13T00:43:45.799Z,0.73
2022-09-13T00:46:34.968Z,0.60
2022-09-13T00:49:27.730Z,0.60
2022-09-13T00:52:02.255Z,0.80
2022-09-13T00:54:35.187Z,0.40
2022-09-13T00:57:04.647Z,0.77
2022-09-13T00:59:45.699Z,0.47
2022-09-13T01:02:12.910Z,0.60
2022-09-13T01:04:39.450Z,0.70
2022-09-13T01:07:12.867Z,0.50
2022-09-13T01:09:44.134Z,0.50
2022-09-13T01:12:31.965Z,0.60
2022-09-13T01:15:00.841Z,0.60
2022-09-13T01:17:29.091Z,0.73
2022-09-13T01:19:55.821Z,0.60
2022-09-13T01:22:44.325Z,1.15
2022-09-13T01:25:31.935Z,0.47
2022-09-13T01:28:09.105Z,0.40
2022-09-13T01:30:44.472Z,0.40
2022-09-13T01:33:26.217Z,0.60
2022-09-13T01:36:18.647Z,0.45
2022-09-13T01:39:03.659Z,0.35
2022-09-13T01:41:45.615Z,0.50
2022-09-13T01:44:24.394Z,0.47
2022-09-13T01:47:15.909Z,0.45
2022-09-13T01:49:45.142Z,0.60
2022-09-13T01:52:35.222Z,0.50
2022-09-13T01:55:23.451Z,0.60
2022-09-13T01:57:53.034Z,0.47
2022-09-13T02:00:19.835Z,0.60
2022-09-13T02:03:04.373Z,0.50
2022-09-13T02:05:55.386Z,0.43
2022-09-13T02:08:34.222Z,0.50
2022-09-13T02:11:08.422Z,0.43
2022-09-13T02:13:42.986Z,0.45
2022-09-13T02:16:15.665Z,0.50
2022-09-13T02:18:48.027Z,0.40
2022-09-13T02:21:23.933Z,0.50
2022-09-13T02:23:58.318Z,0.30
2022-09-13T02:26:27.874Z,0.47
2022-09-13T02:28:57.683Z,0.30
2022-09-13T02:31:33.665Z,0.30
2022-09-13T02:34:06.418Z,0.40
2022-09-13T02:36:40.546Z,0.43
2022-09-13T02:42:09.350Z,0.40
2022-09-13T02:44:44.034Z,0.35
2022-09-13T02:47:28.927Z,0.30
2022-09-13T02:50:11.243Z,0.50
2022-09-13T02:53:01.637Z,0.45
2022-09-13T02:55:39.087Z,0.30
2022-09-13T02:58:11.150Z,0.30
2022-09-13T03:00:38.184Z,0.30
2022-09-13T03:03:09.013Z,0.20
2022-09-13T03:05:35.459Z,0.50
2022-09-13T03:08:02.946Z,0.35
2022-09-13T03:10:46.389Z,0.40
2022-09-13T03:13:41.363Z,0.40
2022-09-13T03:16:41.774Z,0.30
2022-09-13T03:19:22.059Z,0.75
2022-09-13T03:22:17.523Z,0.50
2022-09-13T03:25:13.155Z,0.45
2022-09-13T03:27:44.922Z,0.38
2022-09-13T03:30:14.325Z,0.50
2022-09-13T03:32:59.523Z,0.50
2022-09-13T03:35:32.573Z,0.65
2022-09-13T03:38:08.210Z,0.30
2022-09-13T03:40:51.663Z,0.50
2022-09-13T03:43:35.813Z,0.30
2022-09-13T03:46:10.621Z,0.32
2022-09-13T03:48:39.935Z,0.30
2022-09-13T03:51:07.355Z,0.17
2022-09-13T03:53:41.497Z,0.35
2022-09-13T03:58:41.722Z,1.00
2022-09-13T04:01:10.264Z,0.80
2022-09-13T04:03:37.706Z,0.47
2022-09-13T04:06:04.911Z,0.40
2022-09-13T04:08:32.392Z,0.90
2022-09-13T04:10:59.202Z,0.50
2022-09-13T04:13:25.885Z,0.40
2022-09-13T04:15:52.329Z,0.50
2022-09-13T04:18:18.778Z,0.40
2022-09-13T04:20:54.051Z,0.50
2022-09-13T04:23:20.595Z,0.60
2022-09-13T04:25:46.971Z,1.02
2022-09-13T04:28:13.538Z,0.75
2022-09-13T04:30:44.146Z,0.60
2022-09-13T04:33:10.791Z,0.55
2022-09-13T04:35:39.111Z,0.60
2022-09-13T04:38:06.316Z,0.98
2022-09-13T04:40:33.855Z,0.93
2022-09-13T04:43:01.171Z,0.40
2022-09-13T04:45:28.468Z,0.43
2022-09-13T04:47:56.520Z,1.70
2022-09-13T04:50:24.443Z,0.60
2022-09-13T04:52:51.965Z,0.47
2022-09-13T04:55:18.410Z,0.40
2022-09-13T04:57:44.870Z,0.50
2022-09-13T05:00:11.693Z,0.40
2022-09-13T05:02:38.156Z,0.40
2022-09-13T05:05:05.042Z,0.70
2022-09-13T05:07:31.403Z,0.40
2022-09-13T05:09:58.863Z,0.40
2022-09-13T05:12:25.239Z,0.43
2022-09-13T05:14:51.664Z,0.82
2022-09-13T05:17:18.109Z,0.32
2022-09-13T05:19:44.536Z,0.45
2022-09-13T05:22:10.885Z,0.77
2022-09-13T05:24:37.432Z,0.73
2022-09-13T05:27:04.028Z,1.13
2022-09-13T05:29:30.407Z,0.43
2022-09-13T05:31:56.827Z,0.45
2022-09-13T05:34:23.193Z,0.47
2022-09-13T05:36:54.187Z,0.55
2022-09-13T05:39:36.397Z,0.50
2022-09-13T05:42:08.674Z,0.93
2022-09-13T05:44:35.094Z,1.02
2022-09-13T05:47:01.490Z,1.30
2022-09-13T05:49:27.932Z,1.23
2022-09-13T05:51:54.307Z,2.28
2022-09-13T05:54:20.695Z,2.10
2022-09-13T05:56:47.091Z,2.83
2022-09-13T05:59:14.781Z,2.67
2022-09-13T06:01:41.820Z,2.75
2022-09-13T06:04:08.378Z,3.45
2022-09-13T06:06:35.531Z,2.90
2022-09-13T06:09:02.109Z,3.17
2022-09-13T06:11:28.609Z,3.38
2022-09-13T06:13:54.996Z,3.40
2022-09-13T06:16:21.928Z,3.17
2022-09-13T06:18:49.832Z,3.67
2022-09-13T06:21:28.970Z,3.70
2022-09-13T06:23:56.412Z,3.63
2022-09-13T06:26:25.811Z,2.78
2022-09-13T06:28:54.752Z,4.20
2022-09-13T06:31:24.757Z,3.42
2022-09-13T06:33:57.562Z,3.63
2022-09-13T06:36:24.338Z,3.28
2022-09-13T06:38:53.082Z,3.10
2022-09-13T06:41:23.200Z,3.90
2022-09-13T06:43:54.768Z,3.03
2022-09-13T06:46:24.905Z,2.92
2022-09-13T06:48:52.603Z,1.85
2022-09-13T06:51:22.262Z,1.98
2022-09-13T06:53:49.619Z,1.80
2022-09-13T06:56:24.168Z,1.55
2022-09-13T06:58:54.603Z,1.48
2022-09-13T07:01:29.701Z,1.23
2022-09-13T07:04:22.350Z,1.52
2022-09-13T07:06:50.006Z,1.23
2022-09-13T07:09:21.569Z,0.90
2022-09-13T07:11:50.008Z,1.35
2022-09-13T07:14:22.310Z,1.42
2022-09-13T07:16:49.293Z,1.55
2022-09-13T07:19:18.566Z,1.02
2022-09-13T07:21:44.966Z,1.23
2022-09-13T07:24:12.117Z,1.05
2022-09-13T07:26:38.914Z,1.02
2022-09-13T07:29:08.361Z,0.68
2022-09-13T07:31:37.752Z,0.63
2022-09-13T07:34:07.315Z,1.77
2022-09-13T07:36:35.842Z,0.85
2022-09-13T07:39:04.024Z,1.00
2022-09-13T07:41:32.150Z,1.02
2022-09-13T07:44:00.559Z,0.77
2022-09-13T07:46:28.699Z,0.98
2022-09-13T07:48:57.179Z,0.80
2022-09-13T07:51:26.728Z,0.60
2022-09-13T07:53:57.694Z,0.82
2022-09-13T07:56:30.143Z,0.60
2022-09-13T07:59:00.718Z,0.70
2022-09-13T08:01:30.121Z,0.70
2022-09-13T08:03:59.442Z,0.60
2022-09-13T08:06:27.765Z,0.60
2022-09-13T08:08:54.511Z,0.47
2022-09-13T08:11:24.883Z,0.43
2022-09-13T08:13:52.407Z,0.60
2022-09-13T08:16:21.593Z,0.45
2022-09-13T08:18:54.010Z,1.17
2022-09-13T08:21:20.830Z,1.05
2022-09-13T08:23:47.755Z,0.77
2022-09-13T08:26:14.768Z,0.32
2022-09-13T08:28:42.920Z,0.30
2022-09-13T08:31:12.186Z,0.52
2022-09-13T08:33:40.203Z,1.02
2022-09-13T08:36:09.466Z,0.75
2022-09-13T08:38:35.878Z,0.40
2022-09-13T08:41:06.129Z,0.40
2022-09-13T08:43:54.834Z,0.68
2022-09-13T08:46:28.675Z,0.25
2022-09-13T08:49:01.811Z,0.32
2022-09-13T08:51:44.863Z,0.60
2022-09-13T08:54:16.747Z,0.50
2022-09-13T08:57:05.759Z,0.35
2022-09-13T08:59:58.363Z,0.50
2022-09-13T09:02:49.858Z,0.60
2022-09-13T09:05:18.356Z,0.50
2022-09-13T09:07:50.466Z,0.30
2022-09-13T09:10:31.490Z,0.28
2022-09-13T09:13:14.727Z,0.47
2022-09-13T09:15:50.948Z,0.38
2022-09-13T09:18:23.422Z,0.50
2022-09-13T09:20:53.214Z,0.63
2022-09-13T09:23:36.418Z,0.63
2022-09-13T09:26:16.014Z,0.77
2022-09-13T09:28:44.695Z,0.65
2022-09-13T09:31:20.144Z,0.55
2022-09-13T09:33:57.261Z,0.50
2022-09-13T09:36:50.831Z,0.40
2022-09-13T09:39:17.360Z,0.52
2022-09-13T09:41:45.123Z,0.40
2022-09-13T09:44:23.255Z,0.40
2022-09-13T09:46:59.890Z,0.40
2022-09-13T09:49:57.775Z,0.40
2022-09-13T09:52:31.955Z,0.40
2022-09-13T09:57:52.105Z,0.50
2022-09-13T10:00:20.119Z,0.50
2022-09-13T10:02:48.511Z,0.35
2022-09-13T10:05:20.706Z,0.35
2022-09-13T10:08:06.538Z,0.30
2022-09-13T10:10:42.731Z,0.65
2022-09-13T10:13:18.868Z,0.20
2022-09-13T10:15:55.443Z,0.22
2022-09-13T10:18:42.778Z,0.30
2022-09-13T10:21:18.434Z,0.30
2022-09-13T10:23:50.406Z,0.57
2022-09-13T10:26:26.654Z,0.75
2022-09-13T10:29:05.780Z,0.28
2022-09-13T10:31:37.111Z,0.22
2022-09-13T10:34:24.785Z,0.45
2022-09-13T10:37:04.550Z,0.30
2022-09-13T10:39:34.835Z,0.10
2022-09-13T10:42:08.259Z,0.30
2022-09-13T10:44:43.904Z,0.10
2022-09-13T10:47:27.710Z,0.40
2022-09-13T10:49:57.004Z,0.30
2022-09-13T10:52:24.473Z,0.20
2022-09-13T10:54:50.958Z,0.43
2022-09-13T10:57:37.029Z,0.22
2022-09-13T11:00:10.853Z,0.22
2022-09-13T11:03:11.285Z,0.35
2022-09-13T11:06:32.879Z,0.20
2022-09-13T11:09:15.872Z,0.25
2022-09-13T11:11:55.078Z,0.50
2022-09-13T11:14:44.033Z,0.77
2022-09-13T11:17:19.733Z,0.30
2022-09-13T11:19:57.191Z,0.38
2022-09-13T11:22:54.309Z,0.30
2022-09-13T11:25:51.535Z,0.20
2022-09-13T11:28:42.051Z,0.30
2022-09-13T11:31:30.584Z,0.40
2022-09-13T11:34:18.822Z,0.60
2022-09-13T11:37:04.786Z,0.22
2022-09-13T11:39:40.215Z,0.25
2022-09-13T11:42:15.876Z,0.30
2022-09-13T11:45:22.166Z,0.20
2022-09-13T11:48:05.642Z,0.20
2022-09-13T11:50:44.363Z,0.15
2022-09-13T11:53:44.902Z,0.20
2022-09-13T11:56:17.471Z,0.20
2022-09-13T11:58:52.950Z,0.40
2022-09-13T12:01:38.770Z,0.28
2022-09-13T12:04:13.902Z,0.20
2022-09-13T12:06:45.273Z,0.43
2022-09-13T12:09:25.289Z,0.30
2022-09-13T12:12:13.983Z,0.55
2022-09-13T12:14:54.306Z,0.30
2022-09-13T12:17:37.321Z,0.25
2022-09-13T12:20:07.220Z,0.17
2022-09-13T12:22:36.012Z,0.28
2022-09-13T12:25:12.901Z,0.30
2022-09-13T12:27:45.327Z,0.40
2022-09-13T12:30:20.938Z,0.35
2022-09-13T12:32:49.047Z,0.20
2022-09-13T12:35:34.103Z,0.47
2022-09-13T12:38:31.876Z,0.35
2022-09-13T12:41:19.010Z,0.52
2022-09-13T12:44:16.595Z,0.43
2022-09-13T12:47:13.602Z,0.60
2022-09-13T12:49:49.903Z,0.32
2022-09-13T12:52:40.449Z,0.17
2022-09-13T12:55:46.167Z,0.38
2022-09-13T12:58:45.012Z,0.28
2022-09-13T13:01:26.375Z,0.30
2022-09-13T13:03:56.667Z,0.50
2022-09-13T13:06:35.218Z,0.45
2022-09-13T13:09:07.396Z,0.40
2022-09-13T13:11:46.314Z,0.08
2022-09-13T13:14:46.369Z,0.43
2022-09-13T13:17:43.872Z,0.28
2022-09-13T13:20:47.334Z,0.30
2022-09-13T13:23:27.641Z,0.45
2022-09-13T13:26:01.492Z,0.50
2022-09-13T13:28:43.183Z,0.40
2022-09-13T13:31:30.671Z,0.40
2022-09-13T13:34:05.835Z,0.40
2022-09-13T13:36:41.237Z,0.55
2022-09-13T13:39:34.270Z,0.50
2022-09-13T13:42:10.699Z,0.25
2022-09-13T13:44:37.029Z,0.28
2022-09-13T13:47:09.560Z,0.50
2022-09-13T13:49:39.077Z,0.50
2022-09-13T13:52:08.457Z,0.40
2022-09-13T13:54:50.460Z,0.40
2022-09-13T13:57:29.779Z,0.40
2022-09-13T14:00:19.441Z,0.30
2022-09-13T14:02:54.958Z,0.45
2022-09-13T14:05:30.299Z,0.43
2022-09-13T14:08:34.118Z,0.20
2022-09-13T14:11:36.036Z,0.63
2022-09-13T14:14:08.385Z,0.50
2022-09-13T14:17:07.867Z,0.40
2022-09-13T14:19:41.642Z,0.50
2022-09-13T14:22:21.977Z,0.93
2022-09-13T14:24:50.670Z,1.25
2022-09-13T14:27:30.379Z,0.63
2022-09-13T14:30:04.395Z,0.40
2022-09-13T14:32:41.893Z,0.60
2022-09-13T14:35:41.395Z,0.50
2022-09-13T14:38:21.187Z,1.20
2022-09-13T14:40:53.512Z,0.98
2022-09-13T14:43:25.404Z,0.50
2022-09-13T14:46:10.894Z,1.00
2022-09-13T14:49:02.410Z,0.88
2022-09-13T14:51:48.638Z,0.57
2022-09-13T14:54:21.526Z,0.63
2022-09-13T14:56:54.594Z,0.75
2022-09-13T14:59:34.895Z,0.80
2022-09-13T15:02:18.200Z,1.10
2022-09-13T15:04:50.452Z,0.85
2022-09-13T15:07:23.712Z,0.60
2022-09-13T15:09:55.494Z,1.30
2022-09-13T15:12:28.137Z,1.13
2022-09-13T15:15:26.276Z,1.08
2022-09-13T15:18:03.851Z,0.82
2022-09-13T15:20:58.071Z,1.15
2022-09-13T15:23:33.733Z,2.40
2022-09-13T15:26:03.819Z,2.03
2022-09-13T15:28:51.679Z,1.52
2022-09-13T15:31:26.754Z,1.45
2022-09-13T15:34:18.742Z,1.55
2022-09-13T15:36:47.239Z,1.60
2022-09-13T15:39:21.595Z,1.50
2022-09-13T15:42:00.359Z,1.75
2022-09-13T15:44:29.710Z,3.83
2022-09-13T15:46:59.820Z,6.82
2022-09-13T15:49:28.383Z,6.70
2022-09-13T15:51:59.819Z,9.70
2022-09-13T15:54:38.866Z,9.23
2022-09-13T15:57:13.956Z,8.07
2022-09-13T15:59:41.586Z,6.57
2022-09-13T16:02:23.048Z,7.82
2022-09-13T16:04:49.717Z,6.32
2022-09-13T16:07:16.442Z,5.63
2022-09-13T16:09:43.656Z,5.43
2022-09-13T16:12:10.373Z,5.45
2022-09-13T16:14:36.997Z,4.43
2022-09-13T16:17:24.429Z,5.55
2022-09-13T16:19:51.567Z,5.35
2022-09-13T16:22:18.061Z,4.75
2022-09-13T16:24:44.426Z,6.65
2022-09-13T16:27:13.626Z,6.85
2022-09-13T16:29:40.483Z,6.57
2022-09-13T16:32:07.151Z,6.65
2022-09-13T16:34:33.587Z,5.15
2022-09-13T16:36:59.988Z,4.93
2022-09-13T16:39:26.378Z,5.50
2022-09-13T16:41:52.943Z,5.15
2022-09-13T16:44:19.426Z,5.80
2022-09-13T16:46:46.000Z,6.13
2022-09-13T16:49:12.423Z,5.75
2022-09-13T16:51:38.917Z,4.63
2022-09-13T16:54:05.959Z,4.65
2022-09-13T16:56:32.423Z,4.35
2022-09-13T16:58:58.879Z,4.10
2022-09-13T17:01:29.721Z,3.13
2022-09-13T17:03:57.239Z,3.65
2022-09-13T17:06:26.140Z,4.32
2022-09-13T17:09:04.336Z,3.78
2022-09-13T17:11:36.730Z,4.20
2022-09-13T17:14:05.669Z,4.05
2022-09-13T17:16:37.237Z,4.60
2022-09-13T17:19:06.661Z,3.55
2022-09-13T17:21:33.975Z,4.03
2022-09-13T17:24:01.287Z,3.58
2022-09-13T17:26:27.739Z,3.78
2022-09-13T17:28:54.171Z,4.28
2022-09-13T17:31:20.818Z,3.70
2022-09-13T17:33:47.355Z,3.33
2022-09-13T17:36:14.666Z,4.15
2022-09-13T17:38:41.990Z,4.22
2022-09-13T17:41:14.459Z,3.38
2022-09-13T17:43:42.706Z,3.53
2022-09-13T17:46:21.651Z,3.75
2022-09-13T17:48:52.932Z,3.30
2022-09-13T17:51:22.899Z,2.85
2022-09-13T17:53:52.726Z,4.03
2022-09-13T17:56:22.131Z,2.53
2022-09-13T17:58:48.805Z,4.00
2022-09-13T18:01:15.589Z,2.70
2022-09-13T18:03:42.497Z,3.75
2022-09-13T18:06:10.871Z,2.70
2022-09-13T18:08:38.653Z,2.30
2022-09-13T18:11:13.755Z,2.40
2022-09-13T18:13:44.432Z,2.22
2022-09-13T18:16:20.037Z,2.60
2022-09-13T18:18:48.850Z,2.75
2022-09-13T18:21:18.466Z,2.50
2022-09-13T18:23:46.345Z,2.50
2022-09-13T18:26:16.139Z,2.42
2022-09-13T18:28:43.330Z,2.03
2022-09-13T18:31:13.983Z,2.45
2022-09-13T18:33:40.479Z,2.38
2022-09-13T18:36:12.610Z,2.38
2022-09-13T18:38:42.143Z,2.67
2022-09-13T18:41:11.676Z,2.33
2022-09-13T18:43:40.386Z,2.17
2022-09-13T18:46:09.440Z,2.65
2022-09-13T18:48:38.505Z,2.10
2022-09-13T18:51:05.788Z,2.78
2022-09-13T18:53:35.176Z,2.58
2022-09-13T18:56:06.813Z,2.33
2022-09-13T18:58:34.833Z,2.30
2022-09-13T19:01:07.247Z,2.10
2022-09-13T19:03:34.747Z,2.00
2022-09-13T19:06:10.184Z,1.65
2022-09-13T19:08:36.639Z,1.88
2022-09-13T19:11:03.511Z,2.22
2022-09-13T19:13:30.600Z,1.80
2022-09-13T19:16:02.252Z,1.73
2022-09-13T19:18:29.646Z,2.05
2022-09-13T19:21:03.198Z,1.77
2022-09-13T19:23:55.605Z,1.73
2022-09-13T19:26:23.233Z,2.00
2022-09-13T19:28:56.053Z,1.70
2022-09-13T19:31:24.828Z,1.75
2022-09-13T19:33:53.313Z,1.70
2022-09-13T19:36:23.060Z,1.45
2022-09-13T19:38:51.218Z,1.30
2022-09-13T19:41:19.419Z,2.10
2022-09-13T19:43:47.544Z,1.73
2022-09-13T19:46:15.651Z,1.50
2022-09-13T19:48:44.194Z,1.52
2022-09-13T19:51:15.024Z,1.60
2022-09-13T19:53:56.544Z,1.40
2022-09-13T19:56:27.206Z,1.48
2022-09-13T19:58:53.923Z,1.45
2022-09-13T20:01:23.062Z,1.30
2022-09-13T20:03:55.780Z,1.50
2022-09-13T20:06:23.951Z,1.63
2022-09-13T20:08:51.403Z,1.40
2022-09-13T20:11:18.738Z,1.50
2022-09-13T20:13:46.104Z,1.50
2022-09-13T20:16:16.801Z,1.45
2022-09-13T20:18:43.250Z,1.05
2022-09-13T20:21:10.268Z,1.77
2022-09-13T20:23:38.637Z,1.85
2022-09-13T20:26:16.815Z,1.20
2022-09-13T20:28:43.402Z,1.33
2022-09-13T20:31:10.549Z,1.25
2022-09-13T20:33:39.894Z,1.00
2022-09-13T20:36:10.359Z,1.08
2022-09-13T20:38:38.043Z,0.80
2022-09-13T20:41:14.064Z,1.80
2022-09-13T20:43:41.728Z,1.42
2022-09-13T20:46:11.737Z,1.60
2022-09-13T20:48:38.237Z,1.45
2022-09-13T20:51:08.868Z,0.82
2022-09-13T20:53:36.300Z,1.38
2022-09-13T20:56:11.987Z,0.90
2022-09-13T20:58:39.269Z,1.05
2022-09-13T21:01:08.677Z,1.05
2022-09-13T21:03:37.190Z,1.05
2022-09-13T21:06:04.818Z,1.42
2022-09-13T21:08:43.452Z,1.10
2022-09-13T21:11:24.183Z,1.05
2022-09-13T21:13:52.935Z,0.88
2022-09-13T21:16:24.581Z,0.98
2022-09-13T21:18:53.067Z,0.68
2022-09-13T21:21:23.506Z,0.98
2022-09-13T21:23:50.314Z,0.80
2022-09-13T21:26:20.362Z,1.38
2022-09-13T21:28:47.790Z,1.10
2022-09-13T21:31:21.932Z,0.80
2022-09-13T21:33:49.175Z,1.05
2022-09-13T21:36:15.598Z,0.90
2022-09-13T21:38:44.663Z,0.80
2022-09-13T21:41:16.642Z,0.85
2022-09-13T21:43:44.501Z,0.82
2022-09-13T21:46:16.554Z,0.70
2022-09-13T21:48:45.195Z,0.68
2022-09-13T21:51:25.451Z,0.77
2022-09-13T21:53:58.285Z,1.05
2022-09-13T21:56:26.965Z,0.53
2022-09-13T21:58:55.473Z,0.73
2022-09-13T22:01:23.670Z,0.93
2022-09-13T22:03:51.867Z,0.80
2022-09-13T22:06:19.818Z,0.60
2022-09-13T22:08:51.774Z,1.60
2022-09-13T22:11:27.195Z,0.70
2022-09-13T22:13:54.799Z,0.60
2022-09-13T22:16:24.494Z,0.80
2022-09-13T22:18:54.071Z,1.00
2022-09-13T22:21:23.607Z,0.60
2022-09-13T22:23:50.135Z,0.63
2022-09-13T22:26:20.695Z,0.75
2022-09-13T22:28:48.019Z,0.50
2022-09-13T22:31:20.545Z,1.20
2022-09-13T22:33:47.380Z,0.90
2022-09-13T22:36:15.714Z,1.33
2022-09-13T22:38:43.961Z,1.33
2022-09-13T22:41:15.263Z,1.15
2022-09-13T22:43:42.945Z,0.73
2022-09-13T22:46:17.957Z,0.75
2022-09-13T22:48:44.681Z,0.57
2022-09-13T22:51:13.265Z,0.82
2022-09-13T22:53:42.322Z,0.63
2022-09-13T22:56:13.492Z,0.88
2022-09-13T22:58:40.499Z,0.55
2022-09-13T23:01:09.257Z,0.82
2022-09-13T23:03:37.192Z,0.40
2022-09-13T23:06:04.563Z,0.70
2022-09-13T23:08:31.942Z,0.90
2022-09-13T23:11:10.915Z,0.90
2022-09-13T23:13:37.818Z,0.68
2022-09-13T23:16:13.034Z,0.50
2022-09-13T23:18:39.423Z,0.85
2022-09-13T23:21:06.044Z,0.52
2022-09-13T23:23:32.468Z,0.65
2022-09-13T23:26:10.235Z,0.60
2022-09-13T23:28:39.263Z,0.43
2022-09-13T23:31:21.478Z,0.95
2022-09-13T23:33:50.655Z,0.77
2022-09-13T23:36:23.280Z,0.50
2022-09-13T23:38:54.317Z,0.63
2022-09-13T23:41:21.509Z,0.45
2022-09-13T23:43:48.798Z,0.95
2022-09-13T23:46:15.715Z,0.50
2022-09-13T23:48:45.067Z,0.32
2022-09-13T23:51:20.965Z,0.30
2022-09-13T23:53:47.371Z,0.50
2022-09-13T23:56:14.163Z,0.50
2022-09-13T23:58:40.926Z,0.50
